sensor_id;sensor_type;location;lat;lon;timestamp;P1;durP1;ratioP1;P2;durP2;ratioP2
77160;SDS011;66135;0.000;0.000;2023-05-14T18:18:02;9.07;;;5.18;;
77160;SDS011;66135;0.000;0.000;2023-05-14T18:22:53;11.80;;;5.57;;
77160;SDS011;66135;0.000;0.000;2023-05-14T18:25:18;12.15;;;6.35;;
77160;SDS011;66135;0.000;0.000;2023-05-14T18:30:10;10.00;;;5.20;;
77160;SDS011;66135;0.000;0.000;2023-05-14T18:32:37;9.05;;;4.97;;
77160;SDS011;66135;0.000;0.000;2023-05-14T18:37:28;12.18;;;4.97;;
77160;SDS011;66135;0.000;0.000;2023-05-14T18:39:53;10.27;;;4.95;;
77160;SDS011;66135;0.000;0.000;2023-05-14T18:44:44;10.68;;;5.25;;
77160;SDS011;66135;0.000;0.000;2023-05-14T18:49:35;6.30;;;4.32;;
77160;SDS011;66135;0.000;0.000;2023-05-14T18:52:03;8.55;;;5.60;;
77160;SDS011;66135;0.000;0.000;2023-05-14T18:56:54;12.38;;;5.07;;
77160;SDS011;66135;0.000;0.000;2023-05-14T19:01:45;8.82;;;5.05;;
77160;SDS011;66135;0.000;0.000;2023-05-14T19:06:36;12.30;;;5.35;;
77160;SDS011;66135;0.000;0.000;2023-05-14T19:09:04;10.38;;;5.38;;
77160;SDS011;66135;0.000;0.000;2023-05-14T19:13:54;10.20;;;4.88;;
77160;SDS011;66135;0.000;0.000;2023-05-14T19:18:45;10.20;;;4.88;;
77160;SDS011;66135;0.000;0.000;2023-05-14T19:21:11;9.63;;;4.93;;
77160;SDS011;66135;0.000;0.000;2023-05-14T19:23:47;11.13;;;5.18;;
77160;SDS011;66135;0.000;0.000;2023-05-14T19:28:38;8.88;;;4.45;;
77160;SDS011;66135;0.000;0.000;2023-05-14T19:33:29;7.85;;;4.13;;
77160;SDS011;66135;0.000;0.000;2023-05-14T19:38:20;8.93;;;4.43;;
77160;SDS011;66135;0.000;0.000;2023-05-14T19:40:46;8.20;;;4.22;;
77160;SDS011;66135;0.000;0.000;2023-05-14T19:45:37;9.52;;;4.53;;
77160;SDS011;66135;0.000;0.000;2023-05-14T19:48:04;8.55;;;4.30;;
77160;SDS011;66135;0.000;0.000;2023-05-14T19:50:30;8.98;;;5.10;;
77160;SDS011;66135;0.000;0.000;2023-05-14T19:55:21;7.82;;;4.82;;
77160;SDS011;66135;0.000;0.000;2023-05-14T20:00:12;8.07;;;4.43;;
77160;SDS011;66135;0.000;0.000;2023-05-14T20:02:42;8.73;;;4.30;;
77160;SDS011;66135;0.000;0.000;2023-05-14T20:07:33;8.40;;;4.07;;
77160;SDS011;66135;0.000;0.000;2023-05-14T20:09:59;7.15;;;4.90;;
77160;SDS011;66135;0.000;0.000;2023-05-14T20:14:51;6.65;;;4.75;;
77160;SDS011;66135;0.000;0.000;2023-05-14T20:19:43;6.93;;;4.60;;
77160;SDS011;66135;0.000;0.000;2023-05-14T20:24:33;7.53;;;3.97;;
77160;SDS011;66135;0.000;0.000;2023-05-14T20:26:59;6.57;;;4.07;;
77160;SDS011;66135;0.000;0.000;2023-05-14T20:31:50;8.50;;;4.78;;
77160;SDS011;66135;0.000;0.000;2023-05-14T20:36:40;12.55;;;4.28;;
77160;SDS011;66135;0.000;0.000;2023-05-14T20:41:32;7.80;;;4.45;;
77160;SDS011;66135;0.000;0.000;2023-05-14T20:46:23;7.70;;;4.30;;
77160;SDS011;66135;0.000;0.000;2023-05-14T20:51:15;5.63;;;4.18;;
77160;SDS011;66135;0.000;0.000;2023-05-14T20:56:06;5.80;;;3.90;;
77160;SDS011;66135;0.000;0.000;2023-05-14T21:00:57;7.40;;;4.10;;
77160;SDS011;66135;0.000;0.000;2023-05-14T21:05:48;8.50;;;4.75;;
77160;SDS011;66135;0.000;0.000;2023-05-14T21:08:13;7.28;;;4.03;;
77160;SDS011;66135;0.000;0.000;2023-05-14T21:10:39;6.40;;;3.72;;
77160;SDS011;66135;0.000;0.000;2023-05-14T21:15:31;5.82;;;3.85;;
77160;SDS011;66135;0.000;0.000;2023-05-14T21:20:21;7.72;;;4.20;;
77160;SDS011;66135;0.000;0.000;2023-05-14T21:25:12;6.78;;;3.75;;
77160;SDS011;66135;0.000;0.000;2023-05-14T21:30:03;6.30;;;3.80;;
77160;SDS011;66135;0.000;0.000;2023-05-14T21:32:29;6.75;;;4.00;;
77160;SDS011;66135;0.000;0.000;2023-05-14T21:37:20;8.10;;;4.07;;
77160;SDS011;66135;0.000;0.000;2023-05-14T21:39:45;6.15;;;3.95;;
77160;SDS011;66135;0.000;0.000;2023-05-14T21:44:36;5.10;;;3.25;;
77160;SDS011;66135;0.000;0.000;2023-05-14T21:49:27;4.72;;;3.25;;
77160;SDS011;66135;0.000;0.000;2023-05-14T21:51:53;5.97;;;3.53;;
77160;SDS011;66135;0.000;0.000;2023-05-14T21:56:44;5.07;;;3.03;;
77160;SDS011;66135;0.000;0.000;2023-05-14T22:01:35;7.97;;;4.22;;
77160;SDS011;66135;0.000;0.000;2023-05-14T22:06:26;6.03;;;3.45;;
77160;SDS011;66135;0.000;0.000;2023-05-14T22:11:17;6.32;;;3.50;;
77160;SDS011;66135;0.000;0.000;2023-05-14T22:16:08;7.63;;;3.60;;
77160;SDS011;66135;0.000;0.000;2023-05-14T22:18:35;5.00;;;3.38;;
77160;SDS011;66135;0.000;0.000;2023-05-14T22:23:27;5.03;;;3.50;;
77160;SDS011;66135;0.000;0.000;2023-05-14T22:28:17;6.20;;;4.07;;
77160;SDS011;66135;0.000;0.000;2023-05-14T22:33:08;6.35;;;3.50;;
77160;SDS011;66135;0.000;0.000;2023-05-14T22:37:59;4.93;;;3.73;;
77160;SDS011;66135;0.000;0.000;2023-05-14T22:42:49;4.45;;;3.30;;
77160;SDS011;66135;0.000;0.000;2023-05-14T22:47:48;4.55;;;3.28;;
77160;SDS011;66135;0.000;0.000;2023-05-14T22:52:39;4.75;;;3.03;;
77160;SDS011;66135;0.000;0.000;2023-05-14T22:57:31;5.15;;;3.13;;
77160;SDS011;66135;0.000;0.000;2023-05-14T22:59:57;4.75;;;3.58;;
77160;SDS011;66135;0.000;0.000;2023-05-14T23:04:48;3.87;;;3.40;;
77160;SDS011;66135;0.000;0.000;2023-05-14T23:09:39;6.78;;;3.70;;
77160;SDS011;66135;0.000;0.000;2023-05-14T23:14:30;4.43;;;3.45;;
77160;SDS011;66135;0.000;0.000;2023-05-14T23:16:55;6.10;;;3.45;;
77160;SDS011;66135;0.000;0.000;2023-05-14T23:21:46;4.70;;;3.53;;
77160;SDS011;66135;0.000;0.000;2023-05-14T23:24:11;5.38;;;3.58;;
77160;SDS011;66135;0.000;0.000;2023-05-14T23:26:37;4.28;;;3.30;;
77160;SDS011;66135;0.000;0.000;2023-05-14T23:31:27;3.83;;;2.90;;
77160;SDS011;66135;0.000;0.000;2023-05-14T23:33:53;3.78;;;3.38;;
77160;SDS011;66135;0.000;0.000;2023-05-14T23:38:44;4.07;;;2.75;;
77160;SDS011;66135;0.000;0.000;2023-05-14T23:43:35;4.73;;;3.17;;
77160;SDS011;66135;0.000;0.000;2023-05-14T23:46:01;4.45;;;3.47;;
77160;SDS011;66135;0.000;0.000;2023-05-14T23:50:51;5.10;;;3.00;;
77160;SDS011;66135;0.000;0.000;2023-05-14T23:55:42;3.90;;;3.47;;
